createdAt,value
2023-02-19T00:05:28.475Z,96
2023-02-19T00:15:30.034Z,93
2023-02-19T00:25:31.100Z,92
2023-02-19T00:35:32.208Z,93
2023-02-19T00:45:34.134Z,92
2023-02-19T00:55:35.917Z,92
2023-02-19T01:05:37.084Z,91
2023-02-19T01:25:40.476Z,92
2023-02-19T01:35:41.585Z,91
2023-02-19T01:45:43.229Z,93
2023-02-19T01:55:44.402Z,95
2023-02-19T02:05:46.284Z,95
2023-02-19T02:15:48.272Z,95
2023-02-19T02:35:51.132Z,95
2023-02-19T02:45:52.688Z,95
2023-02-19T03:05:56.040Z,94
2023-02-19T03:15:57.202Z,94
2023-02-19T03:25:58.846Z,93
2023-02-19T03:36:00.316Z,93
2023-02-19T03:46:01.870Z,93
2023-02-19T03:56:03.674Z,92
2023-02-19T04:06:04.882Z,92
2023-02-19T04:16:06.575Z,92
2023-02-19T04:36:09.750Z,91
2023-02-19T04:46:11.549Z,92
2023-02-19T04:56:13.386Z,92
2023-02-19T05:06:15.022Z,91
2023-02-19T05:26:17.651Z,92
2023-02-19T05:36:19.778Z,92
2023-02-19T05:46:21.257Z,92
2023-02-19T06:06:24.462Z,92
2023-02-19T06:16:26.361Z,93
2023-02-19T06:26:28.263Z,94
2023-02-19T06:36:29.611Z,94
2023-02-19T06:46:31.320Z,94
2023-02-19T06:56:32.581Z,95
2023-02-19T07:06:33.942Z,95
2023-02-19T07:16:35.481Z,94
2023-02-19T07:26:36.604Z,94
2023-02-19T07:36:38.120Z,94
2023-02-19T07:46:39.850Z,94
2023-02-19T08:06:42.954Z,95
2023-02-19T08:26:46.466Z,95
2023-02-19T08:36:47.935Z,94
2023-02-19T08:46:49.758Z,93
2023-02-19T08:56:51.573Z,94
2023-02-19T09:06:52.699Z,95
2023-02-19T09:16:54.547Z,95
2023-02-19T09:26:55.841Z,93
2023-02-19T09:36:57.287Z,92
2023-02-19T09:46:58.634Z,93
2023-02-19T09:57:00.492Z,94
2023-02-19T10:07:02.210Z,94
2023-02-19T10:17:03.396Z,93
2023-02-19T10:27:04.736Z,93
2023-02-19T10:37:06.544Z,93
2023-02-19T10:47:08.059Z,92
2023-02-19T10:57:09.456Z,93
2023-02-19T11:07:10.812Z,94
2023-02-19T11:19:50.772Z,95
2023-02-19T11:27:23.290Z,95
2023-02-19T11:37:25.118Z,95
2023-02-19T11:47:26.879Z,95
2023-02-19T11:57:28.540Z,95
2023-02-19T12:07:29.738Z,95
2023-02-19T12:27:32.873Z,95
2023-02-19T12:37:34.914Z,95
2023-02-19T12:47:36.406Z,95
2023-02-19T12:57:37.662Z,95
2023-02-19T13:07:39.001Z,95
2023-02-19T13:17:40.030Z,95
2023-02-19T13:27:41.758Z,95
2023-02-19T13:37:42.285Z,95
2023-02-19T13:47:44.214Z,95
2023-02-19T13:57:45.901Z,95
2023-02-19T14:17:48.481Z,95
2023-02-19T14:27:49.952Z,95
2023-02-19T14:37:51.416Z,95
2023-02-19T14:47:52.906Z,96
2023-02-19T14:57:53.991Z,96
2023-02-19T15:07:55.717Z,96
2023-02-19T15:17:57.393Z,96
2023-02-19T15:27:58.800Z,96
2023-02-19T15:38:00.589Z,96
2023-02-19T15:48:02.142Z,96
2023-02-19T15:58:03.380Z,96
2023-02-19T16:08:04.844Z,96
2023-02-19T16:28:07.691Z,94
2023-02-19T16:38:09.551Z,94
2023-02-19T16:48:11.343Z,94
2023-02-19T16:58:12.657Z,95
2023-02-19T17:08:13.980Z,95
2023-02-19T17:18:15.158Z,95
2023-02-19T17:28:16.627Z,95
2023-02-19T17:38:17.958Z,96
2023-02-19T17:48:19.556Z,93
2023-02-19T17:58:21.387Z,94
2023-02-19T18:08:23.032Z,94
2023-02-19T18:18:24.466Z,95
2023-02-19T18:28:25.692Z,96
2023-02-19T18:38:27.204Z,96
2023-02-19T18:48:28.431Z,95
2023-02-19T18:58:30.307Z,94
2023-02-19T19:08:32.111Z,93
2023-02-19T19:18:34.048Z,93
2023-02-19T19:28:35.571Z,94
2023-02-19T19:38:37.296Z,94
2023-02-19T19:58:39.777Z,94
2023-02-19T20:08:40.954Z,94
2023-02-19T20:28:44.256Z,94
2023-02-19T20:38:45.972Z,94
2023-02-19T20:48:47.615Z,94
2023-02-19T20:58:48.731Z,94
2023-02-19T21:08:50.672Z,93
2023-02-19T21:18:52.467Z,93
2023-02-19T21:28:53.654Z,93
2023-02-19T21:38:55.537Z,93
2023-02-19T21:48:56.742Z,93
2023-02-19T21:58:58.043Z,92
2023-02-19T22:08:59.479Z,91
2023-02-19T22:19:01.079Z,91
2023-02-19T22:29:02.626Z,91
2023-02-19T22:39:04.198Z,91
2023-02-19T22:49:05.349Z,89
2023-02-19T22:59:07.349Z,90
2023-02-19T23:09:10.585Z,90
2023-02-19T23:19:10.342Z,90
2023-02-19T23:29:11.732Z,90
2023-02-19T23:39:13.051Z,91
2023-02-19T23:49:14.205Z,91
2023-02-19T23:59:15.944Z,91
